Dades meteomassalio
Diari Summary for Agost 2, 2017 Units:  English    Metric   Both
« Previous Day
Next Day »
Diari Semanal Mensual Anual Personalitzat
  Maxima: Minima: Mijana:
Temperatura: TemperatureC °F 20.1 °F 27.9 °F
Rosada: DewpointC °F 12.1 °F 17.1 °F
Humitat: Humidity % 28 % 55 %
Velocitat del vent: WindSpeedKMH mph 0.0 mph 5 mph
Racha vent: WindSpeedGustKMH mph - -
Vent:- - South
Pressio: PressurehPa in 1013.8 in -
Pluja: 0.0 in    
Historical Graphs
 
 
Tabular Data for Agost 2, 2017
Time Temperature Dew Point Pressure Wind Wind Speed Wind Gust Humidity Rainfall Rate (Hourly) solar Conditions
TemperatureC °F DewpointC °F PressurehPa in Calm     Humidity % HourlyPrecipMM in SolarRadiationWatts/m^2 W/m2 Conditions
00:01 28.3 °F 15.9 °F 1015.5 in South 17.7 mph 17.7 mph 47 % 0.0 in 0.0 W/m2 CLR
00:06 29.1 °F 15.9 °F 1015.5 in SSE 22.2 mph 22.2 mph 45 % 0.0 in 0.0 W/m2 CLR
00:11 29.4 °F 16.2 °F 1015.5 in SSE 22.5 mph 22.5 mph 45 % 0.0 in 0.0 W/m2 CLR
00:16 29.4 °F 16.2 °F 1015.5 in SSW 14.8 mph 14.8 mph 45 % 0.0 in 0.0 W/m2 CLR
00:21 29.4 °F 16.2 °F 1015.5 in SSW 13.0 mph 16.9 mph 45 % 0.0 in 0.0 W/m2 CLR
00:26 29.3 °F 16.5 °F 1015.5 in South 18.5 mph 18.5 mph 46 % 0.0 in 0.0 W/m2 CLR
00:31 29.3 °F 16.4 °F 1015.8 in Calm     46 % 0.0 in 0.0 W/m2 CLR
00:36 29.2 °F 16.7 °F 1015.8 in Calm     47 % 0.0 in 0.0 W/m2 CLR
00:41 29.0 °F 16.9 °F 1015.8 in ESE 3.7 mph 3.7 mph 48 % 0.0 in 0.0 W/m2 CLR
00:46 28.8 °F 17.0 °F 1015.8 in SE 3.7 mph 3.7 mph 49 % 0.0 in 0.0 W/m2 CLR
00:51 28.6 °F 16.8 °F 1015.8 in Calm     49 % 0.0 in 0.0 W/m2 CLR
00:56 28.4 °F 16.9 °F 1015.8 in Calm     50 % 0.0 in 0.0 W/m2 CLR
01:01 28.3 °F 17.2 °F 1015.8 in Calm     51 % 0.0 in 0.0 W/m2 CLR
01:06 28.3 °F 17.2 °F 1015.8 in Calm     51 % 0.0 in 0.0 W/m2 CLR
01:11 28.2 °F 17.1 °F 1015.5 in Calm     51 % 0.0 in 0.0 W/m2 CLR
01:16 28.2 °F 17.1 °F 1015.8 in Calm     51 % 0.0 in 0.0 W/m2 CLR
01:21 28.2 °F 17.1 °F 1015.8 in Calm     51 % 0.0 in 0.0 W/m2 CLR
01:26 28.2 °F 17.1 °F 1015.8 in Calm     51 % 0.0 in 0.0 W/m2 CLR
01:31 28.2 °F 17.1 °F 1015.5 in Calm     51 % 0.0 in 0.0 W/m2 CLR
01:36 28.3 °F 17.2 °F 1015.5 in Calm     51 % 0.0 in 0.0 W/m2 CLR
01:41 28.1 °F 17.3 °F 1015.5 in NE 13.0 mph 13.0 mph 52 % 0.0 in 0.0 W/m2 CLR
01:46 26.9 °F 17.1 °F 1015.5 in NNE 9.3 mph 9.3 mph 55 % 0.0 in 0.0 W/m2 CLR
01:51 26.1 °F 17.4 °F 1015.8 in NE 5.6 mph 5.6 mph 59 % 0.0 in 0.0 W/m2 CLR
01:56 25.7 °F 17.6 °F 1015.8 in Calm     61 % 0.0 in 0.0 W/m2 CLR
02:01 25.3 °F 17.5 °F 1015.8 in Calm     62 % 0.0 in 0.0 W/m2 CLR
02:06 25.0 °F 17.7 °F 1015.8 in Calm     64 % 0.0 in 0.0 W/m2 CLR
02:11 24.8 °F 17.5 °F 1015.8 in Calm     64 % 0.0 in 0.0 W/m2 CLR
02:16 24.7 °F 17.7 °F 1015.8 in Calm     65 % 0.0 in 0.0 W/m2 CLR
02:21 24.5 °F 17.7 °F 1015.8 in Calm     66 % 0.0 in 0.0 W/m2 CLR
02:26 24.3 °F 17.8 °F 1015.8 in NNE 9.3 mph 9.3 mph 67 % 0.0 in 0.0 W/m2 CLR
02:31 24.3 °F 18.5 °F 1015.8 in Calm     70 % 0.0 in 0.0 W/m2 CLR
02:36 24.3 °F 18.5 °F 1015.8 in Calm     70 % 0.0 in 0.0 W/m2 CLR
02:41 24.2 °F 18.6 °F 1015.8 in Calm     71 % 0.0 in 0.0 W/m2 CLR
02:46 24.1 °F 18.4 °F 1015.8 in Calm     71 % 0.0 in 0.0 W/m2 CLR
02:51 23.9 °F 18.6 °F 1015.8 in Calm     72 % 0.0 in 0.0 W/m2 CLR
02:56 23.8 °F 18.9 °F 1015.8 in Calm     74 % 0.0 in 0.0 W/m2 CLR
03:02 23.7 °F 18.6 °F 1015.8 in Calm     73 % 0.0 in 0.0 W/m2 CLR
03:07 23.5 °F 18.6 °F 1015.8 in Calm     74 % 0.0 in 0.0 W/m2 CLR
03:12 23.4 °F 18.5 °F 1015.8 in Calm     74 % 0.0 in 0.0 W/m2 CLR
03:17 23.2 °F 18.5 °F 1015.8 in Calm     75 % 0.0 in 0.0 W/m2 CLR
03:22 23.1 °F 18.8 °F 1015.8 in Calm     77 % 0.0 in 0.0 W/m2 CLR
03:27 22.8 °F 18.4 °F 1015.8 in Calm     76 % 0.0 in 0.0 W/m2 CLR
03:32 22.7 °F 18.5 °F 1016.1 in Calm     77 % 0.0 in 0.0 W/m2 CLR
03:37 22.6 °F 18.7 °F 1016.1 in Calm     79 % 0.0 in 0.0 W/m2 CLR
03:42 22.5 °F 18.4 °F 1016.1 in Calm     78 % 0.0 in 0.0 W/m2 CLR
03:43 22.5 °F 18.7 °F 1016.1 in Calm     79 % 0.0 in 0.0 W/m2 CLR
03:48 22.3 °F 17.7 °F 1016.1 in Calm     75 % 0.0 in 0.0 W/m2 CLR
03:53 22.3 °F 17.6 °F 1016.1 in Calm     75 % 0.0 in 0.0 W/m2 CLR
03:58 22.2 °F 17.5 °F 1015.8 in Calm     75 % 0.0 in 0.0 W/m2 CLR
04:03 22.1 °F 17.7 °F 1015.8 in Calm     76 % 0.0 in 0.0 W/m2 CLR
04:08 21.9 °F 18.1 °F 1015.8 in Calm     79 % 0.0 in 0.0 W/m2 CLR
04:13 22.0 °F 18.2 °F 1015.8 in Calm     79 % 0.0 in 0.0 W/m2 CLR
04:18 21.9 °F 17.9 °F 1015.8 in Calm     78 % 0.0 in 0.0 W/m2 CLR
04:23 21.8 °F 17.8 °F 1016.1 in Calm     78 % 0.0 in 0.0 W/m2 CLR
04:28 21.8 °F 17.8 °F 1015.8 in Calm     78 % 0.0 in 0.0 W/m2 CLR
04:33 21.7 °F 17.7 °F 1015.8 in Calm     78 % 0.0 in 0.0 W/m2 CLR
04:38 21.6 °F 17.6 °F 1015.8 in Calm     78 % 0.0 in 0.0 W/m2 CLR
04:43 21.4 °F 17.7 °F 1015.8 in Calm     79 % 0.0 in 0.0 W/m2 CLR
04:48 21.3 °F 17.7 °F 1015.8 in Calm     80 % 0.0 in 0.0 W/m2 CLR
04:53 21.3 °F 17.9 °F 1015.8 in Calm     81 % 0.0 in 0.0 W/m2 CLR
04:58 21.2 °F 17.6 °F 1015.8 in Calm     80 % 0.0 in 0.0 W/m2 CLR
05:03 21.2 °F 17.8 °F 1015.8 in Calm     81 % 0.0 in 0.0 W/m2 CLR
05:08 21.2 °F 17.8 °F 1015.8 in Calm     81 % 0.0 in 0.0 W/m2 CLR
05:09 21.2 °F 17.8 °F 1015.8 in Calm     81 % 0.0 in 0.0 W/m2 CLR
05:14 21.2 °F 17.6 °F 1015.8 in Calm     80 % 0.0 in 0.0 W/m2 CLR
05:19 21.1 °F 17.5 °F 1015.8 in Calm     80 % 0.0 in 0.0 W/m2 CLR
05:24 21.0 °F 17.4 °F 1015.8 in Calm     80 % 0.0 in 0.0 W/m2 CLR
05:29 20.9 °F 17.3 °F 1015.8 in Calm     80 % 0.0 in 0.0 W/m2 CLR
05:34 20.8 °F 17.2 °F 1015.8 in Calm     80 % 0.0 in 0.0 W/m2 CLR
05:39 20.7 °F 17.3 °F 1015.8 in Calm     81 % 0.0 in 0.0 W/m2 CLR
05:44 20.6 °F 17.2 °F 1015.8 in Calm   1.4 mph 81 % 0.0 in 0.0 W/m2 CLR
05:49 20.6 °F 17.2 °F 1015.8 in Calm     81 % 0.0 in 0.0 W/m2 CLR
05:54 20.6 °F 17.2 °F 1015.8 in Calm     81 % 0.0 in 0.0 W/m2 CLR
05:59 20.6 °F 17.1 °F 1016.1 in Calm     80 % 0.0 in 0.0 W/m2 CLR
06:04 20.5 °F 16.9 °F 1016.1 in Calm     80 % 0.0 in 0.0 W/m2 CLR
06:09 20.3 °F 16.8 °F 1016.1 in Calm     80 % 0.0 in 0.0 W/m2 CLR
06:14 20.2 °F 16.8 °F 1016.1 in Calm     81 % 0.0 in 0.0 W/m2 CLR
06:19 20.1 °F 16.7 °F 1016.1 in Calm     81 % 0.0 in 0.0 W/m2 CLR
06:24 20.1 °F 16.7 °F 1016.1 in SW 1.6 mph   81 % 0.0 in 0.0 W/m2 CLR
06:29 20.1 °F 16.5 °F 1016.1 in WSW 3.7 mph 3.7 mph 80 % 0.0 in 0.0 W/m2 CLR
06:34 20.1 °F 16.5 °F 1016.1 in Calm     80 % 0.0 in 0.0 W/m2 CLR
06:39 20.1 °F 16.5 °F 1016.5 in Calm     80 % 0.0 in 0.0 W/m2 CLR
06:44 20.1 °F 16.6 °F 1016.5 in Calm     80 % 0.0 in 0.0 W/m2 CLR
06:49 20.1 °F 16.6 °F 1016.5 in Calm     80 % 0.0 in 0.0 W/m2 OVC
06:54 20.1 °F 16.7 °F 1016.5 in Calm     81 % 0.0 in 0.0 W/m2 OVC
06:59 20.2 °F 16.6 °F 1016.5 in Calm     80 % 0.0 in 5.0 W/m2 OVC
07:04 20.2 °F 16.8 °F 1016.8 in Calm     81 % 0.0 in 7.0 W/m2 BKN
07:09 20.1 °F 16.6 °F 1016.8 in Calm     80 % 0.0 in 11.0 W/m2 BKN
07:14 20.1 °F 16.9 °F 1017.2 in Calm     82 % 0.0 in 16.0 W/m2 BKN
07:19 20.2 °F 17.2 °F 1017.2 in WSW 5.6 mph 5.6 mph 83 % 0.0 in 21.0 W/m2 BKN
07:24 20.4 °F 17.2 °F 1017.2 in SW 1.9 mph 1.9 mph 82 % 0.0 in 26.0 W/m2 BKN
07:29 20.4 °F 17.3 °F 1017.2 in Calm     82 % 0.0 in 33.0 W/m2 BKN
07:34 20.6 °F 17.4 °F 1017.2 in Calm     82 % 0.0 in 35.0 W/m2 BKN
07:39 20.6 °F 17.2 °F 1017.2 in Calm     81 % 0.0 in 46.0 W/m2 SCT
07:44 20.8 °F 17.6 °F 1017.2 in SW 1.9 mph 1.9 mph 82 % 0.0 in 51.0 W/m2 SCT
07:49 20.9 °F 17.8 °F 1017.5 in Calm     82 % 0.0 in 58.0 W/m2 SCT
07:54 21.0 °F 17.6 °F 1017.5 in Calm     81 % 0.0 in 67.0 W/m2 FEW
07:59 21.1 °F 17.7 °F 1017.5 in Calm     81 % 0.0 in 74.0 W/m2 SCT
08:04 21.2 °F 17.8 °F 1017.5 in Calm     81 % 0.0 in 81.0 W/m2 FEW
08:05 21.2 °F 17.8 °F 1017.5 in Calm     81 % 0.0 in 83.0 W/m2 FEW
08:10 21.3 °F 17.9 °F 1017.5 in Calm     81 % 0.0 in 95.0 W/m2 FEW
08:15 21.5 °F 18.1 °F 1017.5 in Calm     81 % 0.0 in 102.0 W/m2 CLR
08:20 21.7 °F 18.3 °F 1017.5 in Calm     81 % 0.0 in 104.0 W/m2 CLR
08:25 21.9 °F 18.6 °F 1017.5 in Calm     81 % 0.0 in 156.0 W/m2 CLR
08:30 22.2 °F 18.6 °F 1017.5 in Calm     80 % 0.0 in 114.0 W/m2 CLR
08:35 22.3 °F 18.5 °F 1017.2 in Calm     79 % 0.0 in 120.0 W/m2 CLR
08:40 22.4 °F 18.8 °F 1017.2 in Calm     80 % 0.0 in 142.0 W/m2 CLR
08:45 22.6 °F 18.8 °F 1017.2 in Calm     79 % 0.0 in 257.0 W/m2 CLR
08:50 23.0 °F 18.9 °F 1017.2 in Calm     78 % 0.0 in 320.0 W/m2 CLR
08:55 23.5 °F 19.0 °F 1016.8 in Calm     76 % 0.0 in 188.0 W/m2 CLR
09:00 23.6 °F 18.9 °F 1016.8 in Calm     75 % 0.0 in 171.0 W/m2 CLR
09:05 23.7 °F 18.9 °F 1016.8 in Calm     75 % 0.0 in 183.0 W/m2 CLR
09:10 23.7 °F 18.9 °F 1016.8 in Calm     75 % 0.0 in 220.0 W/m2 CLR
09:15 23.9 °F 19.2 °F 1016.8 in Calm     75 % 0.0 in 216.0 W/m2 CLR
09:20 24.1 °F 19.2 °F 1017.2 in Calm     74 % 0.0 in 188.0 W/m2 CLR
09:25 24.3 °F 19.3 °F 1017.2 in Calm     74 % 0.0 in 290.0 W/m2 CLR
09:30 24.5 °F 19.3 °F 1017.2 in Calm     73 % 0.0 in 253.0 W/m2 CLR
09:35 24.7 °F 19.6 °F 1017.2 in Calm     73 % 0.0 in 251.0 W/m2 CLR
09:40 24.9 °F 19.6 °F 1017.2 in Calm     72 % 0.0 in 476.0 W/m2 CLR
09:45 25.3 °F 19.7 °F 1017.5 in Calm     71 % 0.0 in 320.0 W/m2 CLR
09:50 25.7 °F 19.6 °F 1017.5 in Calm     69 % 0.0 in 345.0 W/m2 CLR
09:55 26.0 °F 19.6 °F 1017.5 in Calm     68 % 0.0 in 517.0 W/m2 CLR
10:00 26.3 °F 19.7 °F 1017.2 in NNW 1.9 mph   67 % 0.0 in 531.0 W/m2 CLR
10:05 26.7 °F 20.1 °F 1017.2 in Calm     67 % 0.0 in 540.0 W/m2 CLR
10:10 27.3 °F 19.9 °F 1017.2 in Calm     64 % 0.0 in 545.0 W/m2 CLR
10:15 27.8 °F 20.2 °F 1017.2 in ENE 9.3 mph 9.3 mph 63 % 0.0 in 550.0 W/m2 CLR
10:20 27.8 °F 20.2 °F 1017.2 in East 9.3 mph 9.3 mph 63 % 0.0 in 613.0 W/m2 CLR
10:25 27.9 °F 19.7 °F 1016.8 in SE 8.0 mph 8.0 mph 61 % 0.0 in 642.0 W/m2 CLR
10:30 28.2 °F 19.9 °F 1016.8 in Calm     61 % 0.0 in 693.0 W/m2 CLR
10:31 28.2 °F 20.0 °F 1016.8 in Calm     61 % 0.0 in 693.0 W/m2 CLR
10:36 28.4 °F 20.2 °F 1016.8 in SE 3.7 mph 3.7 mph 61 % 0.0 in 473.0 W/m2 CLR
10:41 28.3 °F 20.1 °F 1016.8 in Calm     61 % 0.0 in 536.0 W/m2 CLR
10:46 28.4 °F 20.2 °F 1016.1 in ENE 11.1 mph 11.1 mph 61 % 0.0 in 288.0 W/m2 CLR
10:51 28.6 °F 20.6 °F 1016.5 in ESE 5.6 mph 5.6 mph 62 % 0.0 in 622.0 W/m2 CLR
10:56 29.1 °F 20.8 °F 1016.5 in East 5.6 mph 5.6 mph 61 % 0.0 in 422.0 W/m2 CLR
11:01 29.5 °F 20.9 °F 1016.1 in NE 5.6 mph   60 % 0.0 in 612.0 W/m2 CLR
11:06 29.9 °F 21.0 °F 1016.5 in ENE 9.3 mph 9.3 mph 59 % 0.0 in 645.0 W/m2 CLR
11:11 30.4 °F 21.2 °F 1016.1 in ENE 1.6 mph   58 % 0.0 in 650.0 W/m2 CLR
11:16 30.7 °F 20.7 °F 1016.5 in NE 1.9 mph 1.9 mph 55 % 0.0 in 654.0 W/m2 CLR
11:21 31.1 °F 21.0 °F 1016.5 in Calm     55 % 0.0 in 666.0 W/m2 CLR
11:26 31.4 °F 20.9 °F 1016.5 in NNE 7.4 mph   54 % 0.0 in 679.0 W/m2 CLR
11:31 31.5 °F 20.8 °F 1016.8 in Calm     53 % 0.0 in 691.0 W/m2 CLR
11:36 31.6 °F 20.9 °F 1016.8 in Calm     53 % 0.0 in 698.0 W/m2 CLR
11:41 31.6 °F 20.9 °F 1016.8 in Calm   0.2 mph 53 % 0.0 in 712.0 W/m2 CLR
11:46 32.1 °F 21.0 °F 1016.8 in Calm     52 % 0.0 in 722.0 W/m2 CLR
11:51 32.5 °F 20.7 °F 1017.2 in ENE 3.7 mph 3.7 mph 50 % 0.0 in 737.0 W/m2 CLR
11:56 32.6 °F 20.8 °F 1017.5 in NNW 11.1 mph 11.1 mph 50 % 0.0 in 747.0 W/m2 CLR
12:01 32.6 °F 20.1 °F 1017.5 in WSW 16.7 mph 16.7 mph 48 % 0.0 in 766.0 W/m2 CLR
12:06 32.7 °F 18.9 °F 1017.5 in WNW 20.4 mph 20.4 mph 44 % 0.0 in 775.0 W/m2 CLR
12:11 32.6 °F 20.8 °F 1017.5 in North 16.7 mph 16.7 mph 50 % 0.0 in 796.0 W/m2 CLR
12:16 32.6 °F 20.1 °F 1017.5 in NNW 13.0 mph 13.0 mph 48 % 0.0 in 780.0 W/m2 CLR
12:21 32.7 °F 19.9 °F 1017.5 in NW 18.5 mph 18.5 mph 47 % 0.0 in 830.0 W/m2 CLR
12:26 32.9 °F 18.7 °F 1017.5 in North 14.8 mph 14.8 mph 43 % 0.0 in 842.0 W/m2 CLR
12:31 33.3 °F 18.2 °F 1017.5 in WNW 18.5 mph 18.5 mph 41 % 0.0 in 847.0 W/m2 CLR
12:36 33.3 °F 18.6 °F 1017.5 in NNW 20.4 mph 20.4 mph 42 % 0.0 in 842.0 W/m2 CLR
12:41 33.2 °F 18.9 °F 1017.8 in NNW 13.0 mph 13.0 mph 43 % 0.0 in 817.0 W/m2 CLR
12:46 33.4 °F 18.4 °F 1017.5 in NNW 19.3 mph 19.3 mph 41 % 0.0 in 788.0 W/m2 CLR
12:51 33.6 °F 18.2 °F 1017.8 in WSW 18.5 mph 18.5 mph 40 % 0.0 in 858.0 W/m2 CLR
12:56 33.5 °F 16.4 °F 1017.8 in NW 24.1 mph 24.1 mph 36 % 0.0 in 900.0 W/m2 CLR
13:01 33.7 °F 16.5 °F 1017.8 in NW 18.5 mph 18.5 mph 36 % 0.0 in 805.0 W/m2 CLR
13:06 33.8 °F 16.2 °F 1017.5 in West 22.2 mph 22.2 mph 35 % 0.0 in 735.0 W/m2 CLR
13:11 33.6 °F 16.5 °F 1017.5 in WNW 25.7 mph 25.7 mph 36 % 0.0 in 663.0 W/m2 CLR
13:16 33.1 °F 15.6 °F 1017.5 in NW 29.6 mph 29.6 mph 35 % 0.0 in 485.0 W/m2 CLR
13:21 32.9 °F 14.5 °F 1017.5 in NNW 16.7 mph 16.7 mph 33 % 0.0 in 387.0 W/m2 CLR
13:26 32.7 °F 14.8 °F 1017.5 in NW 29.6 mph 29.6 mph 34 % 0.0 in 485.0 W/m2 CLR
13:31 32.8 °F 15.3 °F 1017.5 in NW 17.7 mph 17.7 mph 35 % 0.0 in 476.0 W/m2 CLR
13:36 33.0 °F 14.6 °F 1017.2 in WNW 22.2 mph 22.2 mph 33 % 0.0 in 462.0 W/m2 CLR
13:41 33.1 °F 12.7 °F 1017.2 in NW 27.8 mph 27.8 mph 29 % 0.0 in 471.0 W/m2 CLR
13:46 33.2 °F 12.8 °F 1017.2 in NNW 22.5 mph 22.5 mph 29 % 0.0 in 480.0 W/m2 CLR
13:51 33.0 °F 12.1 °F 1017.2 in NNW 29.6 mph 29.6 mph 28 % 0.0 in 425.0 W/m2 CLR
13:56 33.0 °F 12.6 °F 1017.2 in NW 13.0 mph 13.0 mph 29 % 0.0 in 417.0 W/m2 CLR
14:01 32.8 °F 12.4 °F 1016.8 in NNE 13.0 mph 13.0 mph 29 % 0.0 in 388.0 W/m2 CLR
14:06 32.8 °F 12.4 °F 1016.8 in NNE 14.8 mph 14.8 mph 29 % 0.0 in 385.0 W/m2 CLR
14:11 32.8 °F 12.4 °F 1017.2 in NNW 9.7 mph 9.7 mph 29 % 0.0 in 450.0 W/m2 CLR
14:16 33.0 °F 12.6 °F 1017.2 in Calm     29 % 0.0 in 418.0 W/m2 CLR
14:21 33.1 °F 12.7 °F 1017.2 in North 18.5 mph 18.5 mph 29 % 0.0 in 439.0 W/m2 CLR
14:26 32.9 °F 12.5 °F 1016.8 in NNW 8.0 mph 8.8 mph 29 % 0.0 in 360.0 W/m2 CLR
14:32 32.7 °F 12.9 °F 1017.2 in NNW 7.4 mph 7.4 mph 30 % 0.0 in 348.0 W/m2 CLR
14:37 32.8 °F 12.9 °F 1017.2 in NNW 5.6 mph 5.6 mph 30 % 0.0 in 336.0 W/m2 CLR
14:42 32.7 °F 12.9 °F 1017.2 in NW 9.3 mph 9.3 mph 30 % 0.0 in 332.0 W/m2 CLR
14:47 32.5 °F 13.2 °F 1017.2 in NNW 14.8 mph 14.8 mph 31 % 0.0 in 330.0 W/m2 CLR
14:52 32.3 °F 13.5 °F 1017.2 in NW 13.0 mph 13.0 mph 32 % 0.0 in 369.0 W/m2 CLR
14:57 32.3 °F 13.9 °F 1016.8 in WNW 7.4 mph 7.4 mph 33 % 0.0 in 657.0 W/m2 CLR
15:02 32.6 °F 13.7 °F 1016.8 in WNW 13.0 mph 13.0 mph 32 % 0.0 in 731.0 W/m2 CLR
15:07 32.9 °F 14.1 °F 1016.8 in WNW 18.5 mph 18.5 mph 32 % 0.0 in 763.0 W/m2 CLR
15:12 33.0 °F 13.6 °F 1016.8 in WNW 11.1 mph 11.1 mph 31 % 0.0 in 696.0 W/m2 CLR
15:17 33.0 °F 13.6 °F 1016.8 in Calm     31 % 0.0 in 775.0 W/m2 CLR
15:22 33.3 °F 13.8 °F 1016.8 in North 12.9 mph 12.9 mph 31 % 0.0 in 965.0 W/m2 CLR
15:27 33.5 °F 13.6 °F 1016.8 in NNE 11.1 mph 11.1 mph 30 % 0.0 in 979.0 W/m2 CLR
15:32 33.7 °F 13.7 °F 1016.8 in NNE 16.1 mph 16.1 mph 30 % 0.0 in 872.0 W/m2 CLR
15:37 33.7 °F 13.2 °F 1016.8 in Calm     29 % 0.0 in 585.0 W/m2 CLR
15:42 33.7 °F 13.2 °F 1016.8 in Calm     29 % 0.0 in 285.0 W/m2 CLR
15:47 33.6 °F 13.6 °F 1016.8 in ENE 8.0 mph 8.0 mph 30 % 0.0 in 264.0 W/m2 CLR
15:52 33.4 °F 13.5 °F 1016.8 in NE 5.6 mph 5.6 mph 30 % 0.0 in 236.0 W/m2 CLR
15:57 33.3 °F 13.4 °F 1016.8 in Calm     30 % 0.0 in 193.0 W/m2 CLR
16:02 33.3 °F 13.8 °F 1016.5 in Calm     31 % 0.0 in 158.0 W/m2 CLR
16:07 33.1 °F 13.7 °F 1016.5 in NE 5.6 mph 5.6 mph 31 % 0.0 in 155.0 W/m2 CLR
16:12 33.0 °F 13.6 °F 1016.5 in NE 7.4 mph 7.4 mph 31 % 0.0 in 165.0 W/m2 CLR
16:17 32.9 °F 13.5 °F 1016.5 in Calm     31 % 0.0 in 162.0 W/m2 CLR
16:22 32.8 °F 13.5 °F 1016.5 in Calm     31 % 0.0 in 146.0 W/m2 CLR
16:27 32.8 °F 13.9 °F 1016.5 in NE 5.6 mph 5.6 mph 32 % 0.0 in 120.0 W/m2 CLR
16:32 32.7 °F 13.9 °F 1016.5 in Calm     32 % 0.0 in 86.0 W/m2 CLR
16:37 32.7 °F 13.8 °F 1016.5 in Calm     32 % 0.0 in 60.0 W/m2 FEW
16:42 32.6 °F 13.2 °F 1016.5 in Calm     31 % 0.0 in 46.0 W/m2 SCT
16:47 32.4 °F 13.6 °F 1016.5 in Calm     32 % 0.0 in 33.0 W/m2 SCT
16:52 32.3 °F 13.6 °F 1016.5 in Calm     32 % 0.0 in 33.0 W/m2 BKN
16:57 32.3 °F 13.5 °F 1016.1 in Calm     32 % 0.0 in 35.0 W/m2 BKN
17:02 32.2 °F 13.8 °F 1016.1 in Calm     33 % 0.0 in 46.0 W/m2 BKN
17:07 32.0 °F 13.7 °F 1015.8 in Calm     33 % 0.0 in 67.0 W/m2 SCT
17:12 31.9 °F 14.1 °F 1015.5 in NNE 5.6 mph 5.6 mph 34 % 0.0 in 111.0 W/m2 FEW
17:17 31.9 °F 14.1 °F 1015.5 in ENE 9.3 mph 9.3 mph 34 % 0.0 in 183.0 W/m2 CLR
17:22 32.0 °F 14.6 °F 1015.5 in ENE 5.6 mph 5.6 mph 35 % 0.0 in 230.0 W/m2 CLR
17:27 32.2 °F 16.9 °F 1015.5 in East 17.7 mph 17.7 mph 40 % 0.0 in 274.0 W/m2 CLR
17:32 32.1 °F 18.6 °F 1015.5 in ESE 22.2 mph 22.2 mph 45 % 0.0 in 404.0 W/m2 CLR
17:37 31.9 °F 18.8 °F 1015.1 in ESE 22.2 mph 22.2 mph 46 % 0.0 in 497.0 W/m2 CLR
17:42 31.8 °F 19.1 °F 1015.1 in ESE 20.4 mph 20.4 mph 47 % 0.0 in 415.0 W/m2 CLR
17:47 31.7 °F 18.7 °F 1015.1 in ESE 22.2 mph 22.2 mph 46 % 0.0 in 369.0 W/m2 CLR
17:52 31.6 °F 18.9 °F 1014.8 in East 18.5 mph 18.5 mph 47 % 0.0 in 380.0 W/m2 CLR
17:57 31.6 °F 18.9 °F 1014.8 in ESE 14.8 mph 14.8 mph 47 % 0.0 in 329.0 W/m2 CLR
18:02 31.7 °F 19.0 °F 1014.8 in ESE 11.1 mph 11.1 mph 47 % 0.0 in 258.0 W/m2 CLR
18:07 31.6 °F 18.9 °F 1014.4 in ESE 16.7 mph 16.7 mph 47 % 0.0 in 292.0 W/m2 CLR
18:12 31.4 °F 18.4 °F 1014.4 in ESE 18.5 mph 18.5 mph 46 % 0.0 in 206.0 W/m2 CLR
18:17 31.4 °F 18.7 °F 1014.4 in SE 9.3 mph 9.3 mph 47 % 0.0 in 220.0 W/m2 CLR
18:22 31.4 °F 18.7 °F 1014.4 in Calm     47 % 0.0 in 230.0 W/m2 CLR
18:28 31.5 °F 18.8 °F 1014.4 in SE 5.6 mph 5.6 mph 47 % 0.0 in 214.0 W/m2 CLR
18:33 31.4 °F 18.8 °F 1014.4 in East 6.4 mph 7.4 mph 47 % 0.0 in 190.0 W/m2 CLR
18:38 31.3 °F 19.0 °F 1014.4 in ESE 8.0 mph 8.5 mph 48 % 0.0 in 225.0 W/m2 CLR
18:43 31.2 °F 18.9 °F 1014.1 in East 1.9 mph   48 % 0.0 in 330.0 W/m2 CLR
18:48 31.2 °F 19.2 °F 1014.1 in Calm     49 % 0.0 in 350.0 W/m2 CLR
18:53 31.4 °F 19.1 °F 1014.1 in Calm     48 % 0.0 in 318.0 W/m2 CLR
18:58 31.4 °F 18.8 °F 1014.1 in Calm     47 % 0.0 in 315.0 W/m2 CLR
19:03 31.5 °F 18.8 °F 1014.1 in Calm     47 % 0.0 in 294.0 W/m2 CLR
19:08 31.6 °F 18.6 °F 1014.1 in Calm     46 % 0.0 in 276.0 W/m2 CLR
19:13 31.7 °F 18.6 °F 1013.8 in Calm     46 % 0.0 in 265.0 W/m2 CLR
19:18 31.7 °F 18.3 °F 1013.8 in Calm     45 % 0.0 in 248.0 W/m2 CLR
19:23 31.8 °F 18.1 °F 1013.8 in Calm     44 % 0.0 in 234.0 W/m2 CLR
19:28 31.8 °F 17.7 °F 1013.8 in SE 1.6 mph   43 % 0.0 in 214.0 W/m2 CLR
19:33 31.9 °F 17.4 °F 1013.8 in SE 9.3 mph 9.3 mph 42 % 0.0 in 202.0 W/m2 CLR
19:38 31.9 °F 17.4 °F 1013.8 in SE 9.3 mph 9.3 mph 42 % 0.0 in 188.0 W/m2 CLR
19:43 32.1 °F 17.2 °F 1013.8 in SE 11.1 mph 11.1 mph 41 % 0.0 in 171.0 W/m2 CLR
19:48 32.1 °F 17.2 °F 1013.8 in SE 8.0 mph 8.0 mph 41 % 0.0 in 155.0 W/m2 CLR
19:53 32.2 °F 16.9 °F 1013.8 in ESE 7.4 mph 7.4 mph 40 % 0.0 in 139.0 W/m2 CLR
19:58 32.3 °F 16.6 °F 1013.8 in SE 7.4 mph 7.4 mph 39 % 0.0 in 127.0 W/m2 CLR
20:03 32.3 °F 16.6 °F 1013.8 in SE 11.1 mph 11.1 mph 39 % 0.0 in 111.0 W/m2 CLR
20:08 32.3 °F 17.0 °F 1013.8 in SE 5.6 mph 5.6 mph 40 % 0.0 in 100.0 W/m2 CLR
20:13 32.4 °F 17.1 °F 1014.1 in ESE 1.9 mph 1.9 mph 40 % 0.0 in 88.0 W/m2 CLR
20:18 32.2 °F 17.6 °F 1014.1 in ESE 5.6 mph 5.6 mph 42 % 0.0 in 77.0 W/m2 FEW
20:23 31.9 °F 17.4 °F 1014.1 in ESE 7.4 mph 7.4 mph 42 % 0.0 in 63.0 W/m2 SCT
20:28 31.8 °F 17.3 °F 1014.1 in Calm     42 % 0.0 in 54.0 W/m2 SCT
20:33 31.7 °F 17.2 °F 1014.1 in Calm     42 % 0.0 in 44.0 W/m2 BKN
20:38 31.5 °F 16.7 °F 1014.1 in SE 13.0 mph 13.0 mph 41 % 0.0 in 35.0 W/m2 BKN
20:43 31.3 °F 16.4 °F 1014.1 in SE 13.0 mph 13.0 mph 41 % 0.0 in 25.0 W/m2 BKN
20:48 31.1 °F 16.7 °F 1014.1 in SE 7.4 mph 7.4 mph 42 % 0.0 in 19.0 W/m2 BKN
20:53 30.9 °F 16.2 °F 1014.4 in Calm     41 % 0.0 in 14.0 W/m2 BKN
20:58 31.1 °F 16.3 °F 1014.4 in Calm     41 % 0.0 in 11.0 W/m2 BKN
21:03 31.1 °F 16.3 °F 1014.4 in Calm     41 % 0.0 in 7.0 W/m2 BKN
21:08 30.9 °F 16.2 °F 1014.4 in Calm     41 % 0.0 in 5.0 W/m2 OVC
21:13 30.9 °F 16.1 °F 1014.4 in Calm     41 % 0.0 in 0.0 W/m2 OVC
21:18 30.8 °F 15.7 °F 1014.8 in Calm     40 % 0.0 in 0.0 W/m2 OVC
21:23 30.8 °F 15.6 °F 1014.8 in Calm     40 % 0.0 in 0.0 W/m2 OVC
21:28 30.7 °F 15.9 °F 1014.8 in Calm     41 % 0.0 in 0.0 W/m2 CLR
21:33 30.4 °F 15.7 °F 1014.8 in SE 14.8 mph 14.8 mph 41 % 0.0 in 0.0 W/m2 CLR
21:38 30.3 °F 15.6 °F 1015.1 in SSE 14.8 mph 14.8 mph 41 % 0.0 in 0.0 W/m2 CLR
21:43 30.3 °F 15.9 °F 1015.1 in South 8.0 mph 8.0 mph 42 % 0.0 in 0.0 W/m2 CLR
21:48 30.1 °F 15.8 °F 1015.1 in South 9.3 mph 9.3 mph 42 % 0.0 in 0.0 W/m2 CLR
21:53 30.0 °F 16.1 °F 1015.1 in Calm     43 % 0.0 in 0.0 W/m2 CLR
21:58 29.9 °F 15.9 °F 1015.1 in Calm     43 % 0.0 in 0.0 W/m2 CLR
22:03 29.7 °F 16.2 °F 1015.5 in SSE 9.7 mph 9.7 mph 44 % 0.0 in 0.0 W/m2 CLR
22:08 29.7 °F 16.2 °F 1015.5 in SSE 11.3 mph 11.3 mph 44 % 0.0 in 0.0 W/m2 CLR
22:13 29.7 °F 16.5 °F 1015.5 in SSE 14.5 mph 14.5 mph 45 % 0.0 in 0.0 W/m2 CLR
22:18 29.6 °F 16.4 °F 1015.5 in SSE 9.3 mph 9.3 mph 45 % 0.0 in 0.0 W/m2 CLR
22:23 29.4 °F 16.6 °F 1015.5 in Calm     46 % 0.0 in 0.0 W/m2 CLR
22:28 29.2 °F 16.7 °F 1015.8 in SSE 8.0 mph 8.0 mph 47 % 0.0 in 0.0 W/m2 CLR
22:33 29.1 °F 16.9 °F 1015.8 in SSE 13.0 mph 13.0 mph 48 % 0.0 in 0.0 W/m2 CLR
22:38 28.9 °F 16.8 °F 1015.8 in Calm     48 % 0.0 in 0.0 W/m2 CLR
22:43 28.8 °F 16.7 °F 1015.8 in Calm     48 % 0.0 in 0.0 W/m2 CLR
22:48 28.8 °F 17.0 °F 1015.8 in Calm     49 % 0.0 in 0.0 W/m2 CLR
22:53 28.7 °F 16.9 °F 1015.8 in Calm     49 % 0.0 in 0.0 W/m2 CLR
22:58 28.6 °F 16.8 °F 1015.8 in Calm     49 % 0.0 in 0.0 W/m2 CLR
23:03 28.5 °F 16.7 °F 1015.8 in Calm     49 % 0.0 in 0.0 W/m2 CLR
23:08 28.4 °F 16.7 °F 1015.8 in Calm     49 % 0.0 in 0.0 W/m2 CLR
23:13 28.4 °F 16.7 °F 1015.8 in Calm     49 % 0.0 in 0.0 W/m2 CLR
23:18 28.3 °F 16.6 °F 1015.8 in Calm     49 % 0.0 in 0.0 W/m2 CLR
23:23 28.2 °F 16.4 °F 1015.8 in Calm     49 % 0.0 in 0.0 W/m2 CLR
23:28 28.0 °F 16.3 °F 1015.8 in Calm     49 % 0.0 in 0.0 W/m2 CLR
23:33 27.9 °F 16.2 °F 1015.8 in Calm     49 % 0.0 in 0.0 W/m2 CLR
23:38 27.9 °F 16.5 °F 1015.8 in Calm     50 % 0.0 in 0.0 W/m2 CLR
23:43 27.7 °F 16.3 °F 1016.1 in Calm     50 % 0.0 in 0.0 W/m2 CLR
23:48 27.5 °F 16.4 °F 1015.8 in Calm     51 % 0.0 in 0.0 W/m2 CLR
23:49 27.5 °F 16.4 °F 1015.8 in Calm     51 % 0.0 in 0.0 W/m2 CLR
23:54 27.3 °F 16.3 °F 1016.1 in Calm     51 % 0.0 in 0.0 W/m2 CLR
23:59 27.0 °F 16.3 °F 1015.8 in Calm     52 % 0.0 in 0.0 W/m2 CLR
Lo Temps de Massalio
Compliments of Weather Underground - 1.25 mb